createdAt,value
2022-09-20T00:01:50.458Z,32.90
2022-09-20T00:04:35.844Z,32.17
2022-09-20T00:07:21.100Z,33.27
2022-09-20T00:10:06.457Z,31.60
2022-09-20T00:12:52.384Z,32.57
2022-09-20T00:15:43.779Z,31.80
2022-09-20T00:18:29.494Z,33.93
2022-09-20T00:21:17.147Z,33.50
2022-09-20T00:24:03.151Z,33.80
2022-09-20T00:26:48.841Z,30.33
2022-09-20T00:29:34.084Z,32.53
2022-09-20T00:32:19.578Z,31.00
2022-09-20T00:35:08.522Z,30.67
2022-09-20T00:37:53.984Z,32.20
2022-09-20T00:40:44.289Z,31.10
2022-09-20T00:43:41.454Z,30.07
2022-09-20T00:46:35.885Z,29.63
2022-09-20T00:49:27.624Z,29.33
2022-09-20T00:52:13.423Z,30.67
2022-09-20T00:55:01.031Z,28.33
2022-09-20T00:57:46.897Z,29.90
2022-09-20T01:00:32.415Z,31.40
2022-09-20T01:03:22.976Z,28.93
2022-09-20T01:06:13.783Z,25.97
2022-09-20T01:09:03.108Z,28.87
2022-09-20T01:11:50.663Z,27.07
2022-09-20T01:14:36.224Z,31.27
2022-09-20T01:17:24.980Z,27.47
2022-09-20T01:20:24.870Z,28.27
2022-09-20T01:23:32.093Z,26.53
2022-09-20T01:26:37.699Z,26.73
2022-09-20T01:30:03.223Z,26.67
2022-09-20T01:33:06.833Z,25.87
2022-09-20T01:35:54.311Z,24.55
2022-09-20T01:38:54.959Z,25.77
2022-09-20T01:41:57.484Z,25.40
2022-09-20T01:45:18.197Z,25.13
2022-09-20T01:48:39.382Z,22.97
2022-09-20T01:51:45.990Z,25.90
2022-09-20T01:54:58.083Z,26.80
2022-09-20T01:57:56.942Z,25.47
2022-09-20T02:01:14.757Z,27.33
2022-09-20T02:04:22.201Z,22.70
2022-09-20T02:07:23.002Z,24.30
2022-09-20T02:10:47.311Z,24.20
2022-09-20T02:13:53.710Z,25.90
2022-09-20T02:16:55.777Z,22.80
2022-09-20T02:19:53.276Z,22.57
2022-09-20T02:22:41.473Z,22.37
2022-09-20T02:25:45.635Z,24.67
2022-09-20T02:28:49.442Z,22.10
2022-09-20T02:31:53.197Z,23.70
2022-09-20T02:35:20.076Z,22.50
2022-09-20T02:38:43.197Z,21.80
2022-09-20T02:42:06.435Z,20.47
2022-09-20T02:45:04.250Z,22.63
2022-09-20T02:47:49.799Z,23.93
2022-09-20T02:50:35.327Z,21.80
2022-09-20T02:53:35.950Z,23.13
2022-09-20T02:56:32.762Z,21.43
2022-09-20T02:59:25.845Z,21.37
2022-09-20T03:02:25.006Z,23.27
2022-09-20T03:05:26.574Z,23.17
2022-09-20T03:08:28.226Z,23.93
2022-09-20T03:11:25.849Z,24.27
2022-09-20T03:14:10.878Z,21.53
2022-09-20T03:17:24.286Z,24.03
2022-09-20T03:20:31.685Z,23.35
2022-09-20T03:23:28.473Z,22.10
2022-09-20T03:26:31.382Z,22.20
2022-09-20T03:29:37.180Z,23.40
2022-09-20T03:33:00.233Z,22.50
2022-09-20T03:35:48.430Z,21.37
2022-09-20T03:38:46.252Z,21.63
2022-09-20T03:41:37.155Z,22.30
2022-09-20T03:44:50.642Z,19.97
2022-09-20T03:48:01.059Z,22.20
2022-09-20T03:51:04.449Z,20.70
2022-09-20T03:54:12.350Z,21.37
2022-09-20T03:57:28.752Z,19.00
2022-09-20T04:00:38.564Z,18.73
2022-09-20T04:03:35.520Z,18.63
2022-09-20T04:06:59.404Z,20.33
2022-09-20T04:09:53.777Z,18.23
2022-09-20T04:12:50.164Z,16.50
2022-09-20T04:16:23.390Z,16.77
2022-09-20T04:19:33.391Z,19.73
2022-09-20T04:22:22.754Z,20.40
2022-09-20T04:25:20.020Z,17.07
2022-09-20T04:28:14.019Z,19.57
2022-09-20T04:31:07.199Z,15.30
2022-09-20T04:33:57.438Z,16.77
2022-09-20T04:37:05.076Z,16.30
2022-09-20T04:40:05.655Z,17.03
2022-09-20T04:43:06.567Z,16.77
2022-09-20T04:46:06.888Z,14.43
2022-09-20T04:49:13.841Z,16.53
2022-09-20T04:52:04.151Z,15.10
2022-09-20T04:55:04.626Z,13.07
2022-09-20T04:58:09.149Z,14.93
2022-09-20T05:01:17.153Z,13.77
2022-09-20T05:04:18.436Z,13.20
2022-09-20T05:07:09.823Z,13.17
2022-09-20T05:10:24.402Z,12.07
2022-09-20T05:16:23.218Z,11.33
2022-09-20T05:19:23.810Z,11.80
2022-09-20T05:22:27.948Z,12.27
2022-09-20T05:25:46.866Z,11.33
2022-09-20T05:28:53.751Z,11.97
2022-09-20T05:32:18.371Z,11.50
2022-09-20T05:38:13.598Z,18.83
2022-09-20T05:41:19.017Z,12.83
2022-09-20T05:44:19.859Z,11.33
2022-09-20T05:47:26.333Z,12.27
2022-09-20T05:50:29.702Z,13.87
2022-09-20T05:53:39.418Z,10.75
2022-09-20T05:56:43.069Z,12.47
2022-09-20T05:59:49.477Z,13.25
2022-09-20T06:02:52.173Z,13.90
2022-09-20T06:05:40.480Z,12.45
2022-09-20T06:08:46.012Z,13.33
2022-09-20T06:11:56.339Z,11.67
2022-09-20T06:14:42.134Z,11.13
2022-09-20T06:18:05.186Z,12.23
2022-09-20T06:21:04.028Z,12.07
2022-09-20T06:23:49.624Z,9.90
2022-09-20T06:26:37.400Z,11.57
2022-09-20T06:29:31.075Z,12.10
2022-09-20T06:32:17.670Z,11.17
2022-09-20T06:35:04.645Z,11.27
2022-09-20T06:38:22.899Z,11.10
2022-09-20T06:41:28.610Z,10.60
2022-09-20T06:44:14.760Z,11.93
2022-09-20T06:47:00.217Z,11.27
2022-09-20T06:49:46.793Z,10.83
2022-09-20T06:52:32.967Z,11.27
2022-09-20T06:55:29.316Z,9.37
2022-09-20T06:58:15.291Z,11.00
2022-09-20T07:01:00.511Z,11.00
2022-09-20T07:03:45.993Z,10.47
2022-09-20T07:06:31.222Z,11.23
2022-09-20T07:09:17.218Z,10.40
2022-09-20T07:12:02.866Z,9.23
2022-09-20T07:14:48.124Z,9.90
2022-09-20T07:17:33.884Z,9.63
2022-09-20T07:20:21.441Z,11.90
2022-09-20T07:23:06.875Z,9.93
2022-09-20T07:25:52.833Z,10.80
2022-09-20T07:28:38.289Z,10.90
2022-09-20T07:31:25.589Z,10.17
2022-09-20T07:34:11.115Z,9.67
2022-09-20T07:36:57.339Z,10.10
2022-09-20T07:39:42.949Z,10.93
2022-09-20T07:42:29.129Z,8.80
2022-09-20T07:45:14.525Z,8.27
2022-09-20T07:48:02.534Z,9.77
2022-09-20T07:50:59.198Z,11.17
2022-09-20T07:53:44.758Z,8.77
2022-09-20T07:56:29.880Z,9.13
2022-09-20T07:59:15.675Z,8.90
2022-09-20T08:02:01.133Z,8.97
2022-09-20T08:04:49.920Z,9.00
2022-09-20T08:07:35.209Z,8.30
2022-09-20T08:10:20.396Z,8.47
2022-09-20T08:16:14.110Z,8.30
2022-09-20T08:19:02.831Z,11.80
2022-09-20T08:21:50.324Z,8.27
2022-09-20T08:24:35.705Z,8.87
2022-09-20T08:27:20.940Z,8.97
2022-09-20T08:30:06.850Z,7.80
2022-09-20T08:32:55.430Z,8.00
2022-09-20T08:35:40.548Z,6.83
2022-09-20T08:41:48.626Z,8.17
2022-09-20T08:44:36.946Z,8.60
2022-09-20T08:47:26.389Z,8.23
2022-09-20T08:50:18.704Z,6.90
2022-09-20T08:53:05.245Z,7.13
2022-09-20T08:55:50.540Z,8.57
2022-09-20T08:58:36.518Z,9.63
2022-09-20T09:01:25.974Z,7.27
2022-09-20T09:04:13.417Z,9.00
2022-09-20T09:06:58.661Z,7.87
2022-09-20T09:09:46.662Z,7.70
2022-09-20T09:12:35.759Z,6.73
2022-09-20T09:15:43.529Z,7.43
2022-09-20T09:18:51.712Z,8.07
2022-09-20T09:21:37.223Z,6.87
2022-09-20T09:24:24.888Z,7.37
2022-09-20T09:27:19.188Z,6.70
2022-09-20T09:30:20.697Z,6.30
2022-09-20T09:33:23.416Z,7.37
2022-09-20T09:36:15.164Z,8.13
2022-09-20T09:39:38.048Z,6.90
2022-09-20T09:42:28.805Z,6.47
2022-09-20T09:45:41.027Z,6.57
2022-09-20T09:48:31.188Z,7.20
2022-09-20T09:51:19.903Z,5.97
2022-09-20T09:54:07.817Z,5.60
2022-09-20T09:57:02.398Z,7.03
2022-09-20T10:00:02.621Z,6.30
2022-09-20T10:03:11.945Z,6.70
2022-09-20T10:06:12.547Z,5.80
2022-09-20T10:09:16.619Z,5.67
2022-09-20T10:12:14.773Z,6.47
2022-09-20T10:15:13.358Z,6.93
2022-09-20T10:18:08.559Z,6.47
2022-09-20T10:21:15.850Z,5.40
2022-09-20T10:24:13.694Z,5.57
2022-09-20T10:27:48.297Z,6.37
2022-09-20T10:30:58.415Z,5.10
2022-09-20T10:34:16.460Z,7.60
2022-09-20T10:37:02.211Z,4.93
2022-09-20T10:39:59.256Z,6.90
2022-09-20T10:43:09.703Z,6.23
2022-09-20T10:46:36.438Z,6.63
2022-09-20T10:49:39.611Z,6.03
2022-09-20T10:52:42.415Z,4.55
2022-09-20T10:55:47.386Z,7.32
2022-09-20T10:58:49.354Z,6.03
2022-09-20T11:02:06.275Z,5.73
2022-09-20T11:05:26.117Z,7.53
2022-09-20T11:08:13.924Z,7.23
2022-09-20T11:11:10.557Z,5.63
2022-09-20T11:14:20.282Z,5.27
2022-09-20T11:17:18.659Z,6.33
2022-09-20T11:20:15.287Z,5.50
2022-09-20T11:23:10.353Z,6.97
2022-09-20T11:26:02.057Z,5.87
2022-09-20T11:28:54.110Z,6.80
2022-09-20T11:31:46.256Z,5.80
2022-09-20T11:34:37.318Z,7.00
2022-09-20T11:37:30.314Z,4.80
2022-09-20T11:40:30.297Z,6.45
2022-09-20T11:43:18.412Z,6.83
2022-09-20T11:46:07.869Z,5.43
2022-09-20T11:49:04.712Z,6.13
2022-09-20T11:52:09.301Z,5.70
2022-09-20T11:55:10.845Z,6.63
2022-09-20T11:58:06.861Z,5.50
2022-09-20T12:00:56.616Z,5.20
2022-09-20T12:03:50.962Z,5.63
2022-09-20T12:06:39.995Z,5.20
2022-09-20T12:09:30.538Z,4.20
2022-09-20T12:12:23.211Z,4.57
2022-09-20T12:15:27.673Z,5.00
2022-09-20T12:18:33.044Z,5.43
2022-09-20T12:21:20.764Z,5.20
2022-09-20T12:24:19.069Z,6.33
2022-09-20T12:27:43.991Z,4.67
2022-09-20T12:30:30.962Z,4.60
2022-09-20T12:33:20.821Z,4.57
2022-09-20T12:36:16.296Z,4.37
2022-09-20T12:39:17.554Z,7.23
2022-09-20T12:42:12.263Z,5.37
2022-09-20T12:45:17.613Z,6.20
2022-09-20T12:48:03.199Z,5.37
2022-09-20T12:51:43.098Z,5.73
2022-09-20T12:54:28.609Z,6.57
2022-09-20T12:57:23.839Z,8.73
2022-09-20T13:00:36.309Z,6.07
2022-09-20T13:03:31.980Z,5.43
2022-09-20T13:06:20.682Z,6.70
2022-09-20T13:09:09.463Z,6.57
2022-09-20T13:12:01.006Z,8.60
2022-09-20T13:14:47.516Z,7.93
2022-09-20T13:17:35.027Z,7.90
2022-09-20T13:20:34.990Z,7.20
2022-09-20T13:23:26.866Z,7.67
2022-09-20T13:26:13.572Z,8.53
2022-09-20T13:29:01.801Z,8.47
2022-09-20T13:31:47.544Z,7.10
2022-09-20T13:34:33.158Z,7.23
2022-09-20T13:37:23.796Z,10.43
2022-09-20T13:40:20.971Z,8.43
2022-09-20T13:43:24.444Z,7.27
2022-09-20T13:49:20.939Z,6.90
2022-09-20T13:52:24.268Z,5.37
2022-09-20T13:55:27.374Z,11.40
2022-09-20T13:58:24.194Z,4.38
2022-09-20T14:01:32.292Z,6.70
2022-09-20T14:04:23.787Z,6.70
2022-09-20T14:07:10.103Z,7.40
2022-09-20T14:09:56.683Z,6.53
2022-09-20T14:12:49.585Z,7.17
2022-09-20T14:15:39.146Z,5.72
2022-09-20T14:18:24.911Z,6.30
2022-09-20T14:21:11.970Z,5.70
2022-09-20T14:24:23.840Z,9.20
2022-09-20T14:27:16.704Z,6.83
2022-09-20T14:30:03.867Z,5.97
2022-09-20T14:32:56.487Z,6.73
2022-09-20T14:35:48.869Z,6.53
2022-09-20T14:38:34.214Z,5.47
2022-09-20T14:41:40.443Z,7.00
2022-09-20T14:44:33.761Z,8.37
2022-09-20T14:47:37.995Z,7.85
2022-09-20T14:50:36.726Z,6.63
2022-09-20T14:53:26.878Z,6.63
2022-09-20T14:56:15.392Z,7.97
2022-09-20T14:59:08.062Z,8.30
2022-09-20T15:02:14.794Z,7.35
2022-09-20T15:05:00.950Z,8.80
2022-09-20T15:07:47.713Z,8.63
2022-09-20T15:10:32.932Z,6.03
2022-09-20T15:13:18.574Z,5.37
2022-09-20T15:16:04.197Z,9.30
2022-09-20T15:18:49.642Z,5.27
2022-09-20T15:21:35.138Z,5.83
2022-09-20T15:24:20.597Z,7.77
2022-09-20T15:27:07.148Z,7.33
2022-09-20T15:29:52.563Z,6.57
2022-09-20T15:32:37.990Z,6.47
2022-09-20T15:35:23.641Z,9.30
2022-09-20T15:38:11.674Z,7.83
2022-09-20T15:41:00.724Z,7.07
2022-09-20T15:43:47.235Z,7.37
2022-09-20T15:46:33.365Z,7.57
2022-09-20T15:49:18.938Z,8.33
2022-09-20T15:52:05.313Z,9.17
2022-09-20T15:54:51.801Z,7.93
2022-09-20T15:57:37.073Z,5.73
2022-09-20T16:00:22.442Z,12.27
2022-09-20T16:03:08.050Z,6.67
2022-09-20T16:06:04.415Z,8.03
2022-09-20T16:08:50.865Z,10.40
2022-09-20T16:11:37.330Z,8.37
2022-09-20T16:14:22.907Z,6.60
2022-09-20T16:17:09.719Z,8.03
2022-09-20T16:19:55.341Z,8.40
2022-09-20T16:22:41.251Z,7.37
2022-09-20T16:25:26.766Z,7.27
2022-09-20T16:28:14.070Z,6.10
2022-09-20T16:31:00.540Z,6.60
2022-09-20T16:33:45.690Z,6.37
2022-09-20T16:36:32.994Z,5.40
2022-09-20T16:39:19.613Z,6.07
2022-09-20T16:42:07.506Z,8.70
2022-09-20T16:44:53.134Z,5.07
2022-09-20T16:47:41.042Z,6.53
2022-09-20T16:50:26.365Z,9.00
2022-09-20T16:53:11.673Z,6.60
2022-09-20T16:55:56.938Z,6.23
2022-09-20T16:58:44.489Z,5.40
2022-09-20T17:01:31.965Z,5.10
2022-09-20T17:04:19.142Z,5.40
2022-09-20T17:07:05.798Z,4.53
2022-09-20T17:09:51.632Z,6.37
2022-09-20T17:12:42.623Z,6.63
2022-09-20T17:15:28.524Z,6.07
2022-09-20T17:18:15.724Z,4.43
2022-09-20T17:21:15.615Z,5.53
2022-09-20T17:24:01.073Z,4.80
2022-09-20T17:26:46.704Z,5.80
2022-09-20T17:29:32.089Z,4.40
2022-09-20T17:32:19.448Z,7.03
2022-09-20T17:35:05.883Z,5.07
2022-09-20T17:37:52.028Z,4.73
2022-09-20T17:40:37.489Z,5.17
2022-09-20T17:43:22.843Z,4.93
2022-09-20T17:46:12.015Z,4.10
2022-09-20T17:49:01.179Z,3.63
2022-09-20T17:51:52.058Z,3.70
2022-09-20T17:54:37.583Z,5.40
2022-09-20T17:57:24.456Z,4.20
2022-09-20T18:00:10.662Z,4.93
2022-09-20T18:02:56.128Z,3.53
2022-09-20T18:05:41.530Z,4.43
2022-09-20T18:08:26.799Z,3.57
2022-09-20T18:11:12.186Z,6.77
2022-09-20T18:13:58.739Z,4.13
2022-09-20T18:16:44.423Z,4.93
2022-09-20T18:19:33.946Z,5.23
2022-09-20T18:22:19.761Z,5.00
2022-09-20T18:25:05.321Z,7.10
2022-09-20T18:27:50.908Z,6.53
2022-09-20T18:30:36.017Z,6.67
2022-09-20T18:33:21.213Z,6.93
2022-09-20T18:36:06.802Z,5.00
2022-09-20T18:38:54.910Z,5.70
2022-09-20T18:41:41.317Z,8.13
2022-09-20T18:44:33.805Z,5.13
2022-09-20T18:47:19.522Z,6.17
2022-09-20T18:50:05.598Z,5.93
2022-09-20T18:52:51.344Z,5.43
2022-09-20T18:55:37.664Z,5.27
2022-09-20T18:58:24.564Z,5.67
2022-09-20T19:01:36.664Z,6.13
2022-09-20T19:04:35.505Z,6.37
2022-09-20T19:07:50.744Z,7.43
2022-09-20T19:10:46.843Z,5.80
2022-09-20T19:13:50.573Z,6.27
2022-09-20T19:16:41.804Z,4.43
2022-09-20T19:19:56.204Z,5.23
2022-09-20T19:22:49.191Z,5.47
2022-09-20T19:25:47.479Z,6.78
2022-09-20T19:28:33.275Z,5.30
2022-09-20T19:31:33.317Z,5.40
2022-09-20T19:34:21.392Z,5.33
2022-09-20T19:37:24.985Z,4.83
2022-09-20T19:43:27.912Z,5.23
2022-09-20T19:47:01.456Z,4.20
2022-09-20T19:49:55.285Z,5.00
2022-09-20T19:52:41.341Z,4.88
2022-09-20T19:55:27.068Z,5.30
2022-09-20T19:58:14.339Z,3.93
2022-09-20T20:00:59.833Z,5.00
2022-09-20T20:03:47.873Z,6.70
2022-09-20T20:07:19.440Z,6.47
2022-09-20T20:10:31.420Z,5.50
2022-09-20T20:14:00.023Z,4.03
2022-09-20T20:17:22.919Z,4.27
2022-09-20T20:20:17.852Z,4.20
2022-09-20T20:23:15.591Z,4.87
2022-09-20T20:26:22.150Z,6.43
2022-09-20T20:29:09.980Z,4.77
2022-09-20T20:31:55.152Z,3.60
2022-09-20T20:34:40.611Z,4.80
2022-09-20T20:37:28.175Z,5.63
2022-09-20T20:40:14.038Z,5.40
2022-09-20T20:43:02.026Z,6.70
2022-09-20T20:45:51.023Z,3.20
2022-09-20T20:48:37.161Z,4.03
2022-09-20T20:51:22.947Z,5.50
2022-09-20T20:54:10.054Z,4.00
2022-09-20T20:56:55.297Z,4.40
2022-09-20T20:59:40.511Z,7.50
2022-09-20T21:02:25.843Z,3.60
2022-09-20T21:05:10.975Z,4.40
2022-09-20T21:07:57.821Z,4.03
2022-09-20T21:10:42.985Z,3.93
2022-09-20T21:13:30.049Z,2.97
2022-09-20T21:16:18.053Z,4.57
2022-09-20T21:19:04.912Z,3.43
2022-09-20T21:21:50.454Z,4.30
2022-09-20T21:24:35.849Z,5.00
2022-09-20T21:27:21.185Z,3.63
2022-09-20T21:30:07.313Z,5.93
2022-09-20T21:32:56.098Z,3.27
2022-09-20T21:35:41.374Z,5.93
2022-09-20T21:38:30.395Z,4.07
2022-09-20T21:41:19.871Z,2.53
2022-09-20T21:44:06.535Z,3.57
2022-09-20T21:46:51.806Z,5.07
2022-09-20T21:49:36.936Z,3.20
2022-09-20T21:52:22.144Z,3.13
2022-09-20T21:55:10.736Z,5.00
2022-09-20T21:57:56.229Z,3.17
2022-09-20T22:00:41.552Z,3.37
2022-09-20T22:03:35.047Z,4.10
2022-09-20T22:06:32.397Z,2.92
2022-09-20T22:09:19.343Z,3.47
2022-09-20T22:12:04.953Z,5.50
2022-09-20T22:14:50.285Z,2.67
2022-09-20T22:17:35.628Z,3.93
2022-09-20T22:20:20.945Z,3.50
2022-09-20T22:23:06.082Z,3.10
2022-09-20T22:25:59.514Z,4.03
2022-09-20T22:28:45.151Z,2.85
2022-09-20T22:31:32.711Z,3.03
2022-09-20T22:34:22.464Z,3.47
2022-09-20T22:37:07.902Z,2.77
2022-09-20T22:39:53.061Z,3.00
2022-09-20T22:42:38.217Z,3.37
2022-09-20T22:45:23.730Z,3.70
2022-09-20T22:48:09.144Z,4.97
2022-09-20T22:51:18.419Z,4.10
2022-09-20T22:54:09.149Z,3.20
2022-09-20T22:56:54.212Z,3.70
2022-09-20T22:59:39.614Z,2.97
2022-09-20T23:02:24.863Z,3.03
2022-09-20T23:05:10.990Z,3.00
2022-09-20T23:07:56.641Z,4.40
2022-09-20T23:10:41.811Z,3.37
2022-09-20T23:13:27.079Z,2.50
2022-09-20T23:16:12.595Z,3.07
2022-09-20T23:19:00.102Z,2.40
2022-09-20T23:21:45.648Z,3.53
2022-09-20T23:24:31.144Z,3.53
2022-09-20T23:27:16.750Z,2.33
2022-09-20T23:30:01.964Z,2.17
2022-09-20T23:32:47.998Z,3.20
2022-09-20T23:35:34.234Z,2.50
2022-09-20T23:38:19.355Z,2.60
2022-09-20T23:41:06.771Z,2.87
2022-09-20T23:43:52.218Z,3.47
2022-09-20T23:46:38.812Z,3.87
2022-09-20T23:49:24.236Z,2.50
2022-09-20T23:52:09.431Z,2.43
2022-09-20T23:54:54.634Z,4.00
2022-09-20T23:57:39.887Z,2.87
